Hauptseite
METAR-TAF:

METAR-TAF

Flughäfen :

Flughafen Oslo-Gardermoen

Oslo, Norwegen

Breite: 60-12N, Länge: 011-05E, Höhe: 208 m

Beobachtung

Neuester Wetterbericht von vor 15 Minuten, um 00:50 UTC
Wind 3 kt aus Nord
Temperatur 0°C
Luftfeuchtigkeit 86%
Luftdruck 1023 hPa
Sichtweite 10 km oder mehr
keine Wolken unter 1500 m und keine Kumulonimbus oder Gewitterwolken

METAR: ENGM 190050Z 35003KT CAVOK 00/M02 Q1023

Zeit: 03:05 (01:05 UTC)

Prognose

Gültige Prognose vom 19 um 00 UTC bis 19 um 24 UTC
Wind 5 kt aus Nord/Nordwest
Sichtweite 10 km oder mehr
keine Wolken unter 1500 m und keine Kumulonimbus oder Gewitterwolken

TAF: ENGM 1900/1924 33005KT CAVOK

Wetterbeobachtungen und Prognosen von mehr als 4000 Flughäfen (METAR und TAF Bericht).

Die verfügbaren Stationen werden durch gelbe und rote Markierungen auf der Karte dargestellt.

Führen Sie die Maus auf sie, um den Namen der Station zu sehen.

Darauf klicken, um die Beobachtung von Wetterbeobachtungen und Prognosen zu sehen.

Um die Karte zu ändern : klicken Sie auf den grünen Tasten mit einem schwarzen Kreuz Zum Vergrößern, auf den grünen Button mit einem Gedankenstrich zu verkleinern, oder auf die grünen Pfeile für benachbarte Karten.


METAR-TAF: